createdAt,value
2016-09-01T00:00:05.708Z,90.34
2016-09-01T00:01:05.120Z,90.25
2016-09-01T00:02:05.088Z,90.25
2016-09-01T00:03:05.074Z,90.64
2016-09-01T00:04:04.353Z,90.64
2016-09-01T00:05:04.337Z,90.64
2016-09-01T00:06:05.056Z,90.64
2016-09-01T00:07:04.312Z,90.34
2016-09-01T00:08:05.017Z,90.34
2016-09-01T00:09:05.004Z,90.44
2016-09-01T00:10:04.996Z,91.12
2016-09-01T00:11:04.987Z,91.21
2016-09-01T00:12:04.979Z,91.02
2016-09-01T00:13:04.956Z,90.92
2016-09-01T00:14:04.945Z,91.07
2016-09-01T00:15:04.937Z,91.12
2016-09-01T00:16:04.924Z,90.92
2016-09-01T00:17:04.185Z,90.97
2016-09-01T00:18:04.895Z,91.12
2016-09-01T00:19:04.891Z,90.97
2016-09-01T00:20:04.876Z,90.97
2016-09-01T00:21:04.860Z,91.07
2016-09-01T00:22:04.846Z,90.69
2016-09-01T00:23:04.837Z,91.17
2016-09-01T00:24:04.109Z,90.69
2016-09-01T00:25:04.806Z,90.97
2016-09-01T00:26:04.798Z,91.07
2016-09-01T00:27:04.784Z,91.12
2016-09-01T00:28:04.779Z,91.46
2016-09-01T00:29:04.766Z,91.65
2016-09-01T00:30:04.748Z,91.65
2016-09-01T00:31:04.737Z,91.65
2016-09-01T00:32:04.727Z,91.65
2016-09-01T00:33:04.010Z,90.69
2016-09-01T00:34:03.979Z,89.92
2016-09-01T00:35:04.694Z,90.5
2016-09-01T00:36:04.672Z,90.01
2016-09-01T00:37:04.023Z,90.16
2016-09-01T00:38:04.659Z,89
2016-09-01T00:39:04.641Z,88.61
2016-09-01T00:40:03.912Z,87.46
2016-09-01T00:41:04.604Z,87.74
2016-09-01T00:42:04.598Z,87.65
2016-09-01T00:43:04.612Z,87.55
2016-09-01T00:44:04.582Z,87.36
2016-09-01T00:45:03.862Z,87.36
2016-09-01T00:46:04.573Z,87.36
2016-09-01T00:47:04.535Z,87.07
2016-09-01T00:48:04.532Z,87.74
2016-09-01T00:49:04.519Z,87.36
2016-09-01T00:50:04.526Z,87.46
2016-09-01T00:51:04.493Z,86.88
2016-09-01T00:52:04.479Z,87.07
2016-09-01T00:53:04.464Z,86.69
2016-09-01T00:54:03.734Z,86.88
2016-09-01T00:55:04.435Z,86.69
2016-09-01T00:56:03.708Z,86.59
2016-09-01T00:57:03.711Z,86.59
2016-09-01T00:58:04.461Z,86.98
2016-09-01T00:59:04.391Z,87.17
2016-09-01T01:00:04.427Z,86.88
2016-09-01T01:01:04.365Z,86.69
2016-09-01T01:02:04.356Z,86.4
2016-09-01T01:03:04.349Z,86.49
2016-09-01T01:04:04.325Z,86.98
2016-09-01T01:05:04.823Z,86.98
2016-09-01T01:06:04.302Z,86.88
2016-09-01T01:07:04.301Z,86.98
2016-09-01T01:08:04.303Z,86.78
2016-09-01T01:09:03.561Z,87.55
2016-09-01T01:10:04.355Z,87.46
2016-09-01T01:11:04.239Z,87.32
2016-09-01T01:12:04.227Z,87.51
2016-09-01T01:13:03.505Z,87.84
2016-09-01T01:14:04.207Z,88.32
2016-09-01T01:15:04.193Z,89.15
2016-09-01T01:16:04.174Z,89.43
2016-09-01T01:17:04.190Z,89.34
2016-09-01T01:18:04.158Z,89.24
2016-09-01T01:19:03.432Z,89.24
2016-09-01T01:20:04.125Z,89.34
2016-09-01T01:21:04.118Z,89.43
2016-09-01T01:22:04.124Z,89.92
2016-09-01T01:23:04.084Z,89.63
2016-09-01T01:24:04.083Z,89.53
2016-09-01T01:25:04.066Z,89.82
2016-09-01T01:26:03.338Z,89.78
2016-09-01T01:27:04.048Z,90.45
2016-09-01T01:28:04.040Z,90.06
2016-09-01T01:29:03.301Z,89.87
2016-09-01T01:30:04.008Z,89.72
2016-09-01T01:31:03.988Z,90.5
2016-09-01T01:32:03.991Z,90.55
2016-09-01T01:33:03.970Z,90.35
2016-09-01T01:34:03.956Z,90.26
2016-09-01T01:35:03.241Z,90.35
2016-09-01T01:36:03.224Z,90.35
2016-09-01T01:37:03.913Z,91.03
2016-09-01T01:38:03.191Z,90.83
2016-09-01T01:39:03.954Z,91.51
2016-09-01T01:40:04.216Z,91.7
2016-09-01T01:41:03.863Z,92.04
2016-09-01T01:42:03.861Z,92.33
2016-09-01T01:43:03.851Z,92.33
2016-09-01T01:44:03.825Z,92.23
2016-09-01T01:45:03.831Z,92.33
2016-09-01T01:46:03.801Z,92.76
2016-09-01T01:47:03.796Z,93.29
2016-09-01T01:48:03.784Z,93.05
2016-09-01T01:49:03.846Z,92.52
2016-09-01T01:50:04.090Z,92.91
2016-09-01T01:51:03.787Z,92.23
2016-09-01T01:52:03.731Z,92.33
2016-09-01T01:53:03.738Z,92.33
2016-09-01T01:54:03.700Z,92.43
2016-09-01T01:55:03.696Z,92.13
2016-09-01T01:56:03.671Z,92.33
2016-09-01T01:57:03.674Z,92.43
2016-09-01T01:58:03.645Z,92.43
2016-09-01T01:59:03.638Z,91.85
2016-09-01T02:00:03.631Z,92.13
2016-09-01T02:01:03.671Z,92.33
2016-09-01T02:02:03.605Z,92.33
2016-09-01T02:03:03.585Z,92.33
2016-09-01T02:04:03.565Z,93
2016-09-01T02:05:03.610Z,92.04
2016-09-01T02:06:02.831Z,91.36
2016-09-01T02:07:03.530Z,90.55
2016-09-01T02:08:03.518Z,90.45
2016-09-01T02:09:02.802Z,90.31
2016-09-01T02:10:03.496Z,90.55
2016-09-01T02:11:03.489Z,90.45
2016-09-01T02:12:03.465Z,90.55
2016-09-01T02:13:03.463Z,90.35
2016-09-01T02:14:03.439Z,90.26
2016-09-01T02:15:02.710Z,90.31
2016-09-01T02:16:03.411Z,90.26
2016-09-01T02:17:03.403Z,90.06
2016-09-01T02:18:03.389Z,89.68
2016-09-01T02:19:03.376Z,89.87
2016-09-01T02:20:03.368Z,89.87
2016-09-01T02:21:03.581Z,89.1
2016-09-01T02:22:03.334Z,89.01
2016-09-01T02:23:03.326Z,89.39
2016-09-01T02:24:03.321Z,88.91
2016-09-01T02:25:03.298Z,88.81
2016-09-01T02:26:03.286Z,88.33
2016-09-01T02:27:03.290Z,88.71
2016-09-01T02:28:03.267Z,88.62
2016-09-01T02:29:03.247Z,89.34
2016-09-01T02:30:03.328Z,89.43
2016-09-01T02:31:02.505Z,89.01
2016-09-01T02:32:02.502Z,89.1
2016-09-01T02:33:03.193Z,89.01
2016-09-01T02:34:03.191Z,89.2
2016-09-01T02:35:03.171Z,89.05
2016-09-01T02:36:03.172Z,88.91
2016-09-01T02:37:03.159Z,89.34
2016-09-01T02:38:02.420Z,88.28
2016-09-01T02:39:03.121Z,88.85
2016-09-01T02:40:02.407Z,88.95
2016-09-01T02:41:03.099Z,88.76
2016-09-01T02:42:03.083Z,89.01
2016-09-01T02:43:03.082Z,88.91
2016-09-01T02:44:03.067Z,89.2
2016-09-01T02:45:03.050Z,89.29
2016-09-01T02:46:03.033Z,89.49
2016-09-01T02:47:03.017Z,89.68
2016-09-01T02:48:03.011Z,89.78
2016-09-01T02:49:02.984Z,90.06
2016-09-01T02:50:02.980Z,90.06
2016-09-01T02:51:02.972Z,89.97
2016-09-01T02:52:02.975Z,90.16
2016-09-01T02:53:02.949Z,90.64
2016-09-01T02:54:02.948Z,90.73
2016-09-01T02:55:02.916Z,90.35
2016-09-01T02:56:02.189Z,90.79
2016-09-01T02:57:02.900Z,90.79
2016-09-01T02:58:02.888Z,90.79
2016-09-01T02:59:02.151Z,91.03
2016-09-01T03:00:02.139Z,91.03
2016-09-01T03:01:02.840Z,91.36
2016-09-01T03:02:02.827Z,91.27
2016-09-01T03:03:02.831Z,91.36
2016-09-01T03:04:02.790Z,91.08
2016-09-01T03:05:02.788Z,91.56
2016-09-01T03:06:02.768Z,91.27
2016-09-01T03:07:02.760Z,91.36
2016-09-01T03:08:02.748Z,91.17
2016-09-01T03:09:02.737Z,91.17
2016-09-01T03:10:02.731Z,91.75
2016-09-01T03:11:02.706Z,91.75
2016-09-01T03:12:02.759Z,91.85
2016-09-01T03:13:02.680Z,91.75
2016-09-01T03:14:02.668Z,91.94
2016-09-01T03:15:01.938Z,91.85
2016-09-01T03:16:02.651Z,91.85
2016-09-01T03:17:02.630Z,92.04
2016-09-01T03:18:02.612Z,92.52
2016-09-01T03:19:02.603Z,92.33
2016-09-01T03:20:02.615Z,91.85
2016-09-01T03:21:01.860Z,91.94
2016-09-01T03:22:02.568Z,91.85
2016-09-01T03:23:02.557Z,92.04
2016-09-01T03:24:02.598Z,91.85
2016-09-01T03:25:02.530Z,92.33
2016-09-01T03:26:02.519Z,92.91
2016-09-01T03:27:01.787Z,92.81
2016-09-01T03:28:02.486Z,92.71
2016-09-01T03:29:02.477Z,92.52
2016-09-01T03:30:02.773Z,92.52
2016-09-01T03:31:02.447Z,92.52
2016-09-01T03:32:01.732Z,92.71
2016-09-01T03:33:02.422Z,92.61
2016-09-01T03:34:02.409Z,92.52
2016-09-01T03:35:01.681Z,92.71
2016-09-01T03:36:02.391Z,92.52
2016-09-01T03:37:02.376Z,93.1
2016-09-01T03:38:02.418Z,92.81
2016-09-01T03:39:02.346Z,93.15
2016-09-01T03:40:01.637Z,93.38
2016-09-01T03:41:02.320Z,93
2016-09-01T03:42:02.297Z,92.81
2016-09-01T03:43:02.295Z,93.19
2016-09-01T03:44:02.280Z,93.73
2016-09-01T03:45:02.256Z,93.82
2016-09-01T03:46:01.609Z,93.63
2016-09-01T03:47:02.230Z,94.01
2016-09-01T03:48:02.218Z,93.91
2016-09-01T03:49:02.215Z,94.11
2016-09-01T03:50:02.196Z,93.82
2016-09-01T03:51:02.189Z,93.82
2016-09-01T03:52:02.175Z,93.91
2016-09-01T03:53:02.156Z,94.01
2016-09-01T03:54:02.150Z,93.53
2016-09-01T03:55:01.419Z,93.73
2016-09-01T03:56:02.120Z,93.82
2016-09-01T03:57:02.101Z,94.01
2016-09-01T03:58:02.087Z,94.21
2016-09-01T03:59:02.078Z,94.11
2016-09-01T04:00:02.699Z,94.21
2016-09-01T04:01:02.058Z,94.11
2016-09-01T04:02:01.330Z,94.59
2016-09-01T04:03:02.024Z,94.78
2016-09-01T04:04:02.012Z,94.59
2016-09-01T04:05:01.991Z,94.4
2016-09-01T04:06:01.983Z,93.91
2016-09-01T04:07:01.970Z,94.78
2016-09-01T04:08:01.242Z,93.82
2016-09-01T04:09:01.949Z,93.73
2016-09-01T04:10:01.931Z,93.91
2016-09-01T04:11:01.921Z,94.11
2016-09-01T04:12:01.938Z,94.49
2016-09-01T04:13:01.901Z,94.68
2016-09-01T04:14:01.872Z,94.3
2016-09-01T04:15:01.915Z,94.3
2016-09-01T04:16:01.851Z,94.11
2016-09-01T04:17:01.844Z,94.4
2016-09-01T04:18:01.825Z,93.82
2016-09-01T04:19:01.866Z,94.49
2016-09-01T04:20:01.794Z,94.21
2016-09-01T04:21:01.840Z,94.78
2016-09-01T04:22:01.779Z,94.98
2016-09-01T04:23:01.101Z,94.49
2016-09-01T04:24:01.027Z,94.59
2016-09-01T04:25:02.189Z,94.78
2016-09-01T04:26:01.713Z,94.68
2016-09-01T04:27:01.706Z,94.59
2016-09-01T04:28:01.695Z,94.68
2016-09-01T04:29:01.735Z,94.4
2016-09-01T04:30:01.667Z,94.68
2016-09-01T04:31:01.690Z,94.59
2016-09-01T04:32:01.635Z,95.17
2016-09-01T04:33:01.660Z,95.07
2016-09-01T04:34:01.618Z,94.49
2016-09-01T04:35:01.608Z,94.98
2016-09-01T04:36:01.592Z,94.88
2016-09-01T04:37:01.589Z,94.98
2016-09-01T04:38:01.564Z,95.17
2016-09-01T04:39:01.551Z,94.78
2016-09-01T04:40:01.531Z,95.07
2016-09-01T04:41:01.520Z,94.59
2016-09-01T04:42:01.508Z,95.07
2016-09-01T04:43:01.498Z,95.17
2016-09-01T04:44:01.472Z,94.68
2016-09-01T04:45:01.468Z,94.68
2016-09-01T04:46:01.451Z,94.78
2016-09-01T04:47:01.433Z,95.07
2016-09-01T04:48:01.432Z,95.26
2016-09-01T04:49:01.408Z,95.55
2016-09-01T04:50:01.400Z,95.75
2016-09-01T04:51:01.377Z,95.36
2016-09-01T04:52:01.368Z,95.55
2016-09-01T04:53:01.354Z,95.55
2016-09-01T04:54:01.340Z,95.65
2016-09-01T04:55:01.324Z,95.75
2016-09-01T04:56:01.319Z,96.03
2016-09-01T04:57:01.308Z,96.13
2016-09-01T04:58:01.288Z,96.17
2016-09-01T04:59:01.273Z,96.32
2016-09-01T05:00:00.555Z,96.37
2016-09-01T05:01:00.540Z,96.7
2016-09-01T05:02:01.237Z,97.14
2016-09-01T05:03:01.228Z,97.81
2016-09-01T05:04:00.489Z,98.58
2016-09-01T05:05:00.476Z,98.1
2016-09-01T05:06:01.189Z,97.33
2016-09-01T05:07:01.199Z,97.04
2016-09-01T05:08:00.446Z,97.14
2016-09-01T05:09:01.166Z,97.14
2016-09-01T05:10:01.118Z,97.24
2016-09-01T05:11:01.134Z,97.19
2016-09-01T05:12:00.388Z,97.14
2016-09-01T05:13:00.376Z,97.38
2016-09-01T05:14:01.078Z,97.19
2016-09-01T05:15:01.081Z,96.85
2016-09-01T05:16:01.047Z,96.66
2016-09-01T05:17:00.321Z,96.85
2016-09-01T05:18:01.019Z,96.66
2016-09-01T05:19:01.010Z,96.56
2016-09-01T05:20:01.001Z,96.9
2016-09-01T05:21:00.259Z,96.51
2016-09-01T05:22:00.958Z,96.22
2016-09-01T05:23:00.243Z,96.51
2016-09-01T05:24:00.217Z,96.7
2016-09-01T05:25:00.220Z,96.13
2016-09-01T05:26:00.933Z,96.13
2016-09-01T05:27:00.894Z,96.51
2016-09-01T05:28:00.885Z,96.22
2016-09-01T05:29:00.870Z,96.22
2016-09-01T05:30:00.142Z,96.61
2016-09-01T05:31:01.121Z,96.22
2016-09-01T05:32:00.827Z,95.94
2016-09-01T05:33:00.811Z,96.13
2016-09-01T05:34:00.807Z,95.94
2016-09-01T05:35:00.792Z,95.36
2016-09-01T05:36:00.060Z,95.45
2016-09-01T05:37:00.770Z,95.36
2016-09-01T05:38:00.772Z,95.17
2016-09-01T05:39:00.741Z,95.17
2016-09-01T05:40:00.725Z,95.17
2016-09-01T05:41:00.727Z,95.45
2016-09-01T05:42:00.696Z,95.17
2016-09-01T05:43:00.681Z,94.3
2016-09-01T05:44:00.670Z,94.35
2016-09-01T05:45:00.718Z,94.45
2016-09-01T05:46:00.648Z,94.83
2016-09-01T05:47:00.625Z,94.54
2016-09-01T05:48:00.617Z,94.49
2016-09-01T05:49:00.608Z,94.73
2016-09-01T05:50:00.587Z,94.54
2016-09-01T05:50:59.936Z,94.64
2016-09-01T05:52:00.562Z,94.45
2016-09-01T05:52:59.842Z,94.25
2016-09-01T05:54:00.538Z,93.77
2016-09-01T05:55:00.526Z,94.25
2016-09-01T05:56:00.515Z,93.68
2016-09-01T05:57:00.495Z,93.58
2016-09-01T05:58:00.487Z,93.1
2016-09-01T05:59:00.495Z,94.01
2016-09-01T05:59:59.746Z,94.64
2016-09-01T06:00:59.738Z,94.78
2016-09-01T06:01:59.712Z,94.49
2016-09-01T06:02:59.703Z,94.25
2016-09-01T06:04:00.396Z,94.25
2016-09-01T06:05:00.396Z,94.15
2016-09-01T06:06:00.390Z,94.25
2016-09-01T06:07:00.381Z,93.68
2016-09-01T06:08:00.358Z,93.48
2016-09-01T06:09:00.341Z,93.96
2016-09-01T06:10:00.334Z,94.25
2016-09-01T06:11:00.440Z,93.96
2016-09-01T06:11:59.590Z,93.58
2016-09-01T06:13:00.294Z,93.1
2016-09-01T06:14:00.274Z,93.72
2016-09-01T06:15:00.437Z,94.06
2016-09-01T06:16:00.256Z,94.35
2016-09-01T06:17:00.234Z,94.15
2016-09-01T06:18:00.223Z,93.68
2016-09-01T06:19:00.209Z,93.05
2016-09-01T06:20:00.208Z,92.57
2016-09-01T06:21:00.185Z,92.85
2016-09-01T06:21:59.490Z,92.08
2016-09-01T06:23:00.167Z,91.99
2016-09-01T06:24:00.146Z,91.99
2016-09-01T06:25:00.138Z,91.89
2016-09-01T06:26:00.126Z,91.31
2016-09-01T06:27:00.116Z,90.97
2016-09-01T06:27:59.380Z,90.59
2016-09-01T06:29:00.084Z,90.4
2016-09-01T06:30:00.076Z,90.69
2016-09-01T06:31:00.059Z,91.75
2016-09-01T06:32:00.059Z,92.08
2016-09-01T06:33:00.036Z,91.51
2016-09-01T06:34:00.025Z,90.97
2016-09-01T06:34:59.300Z,90.01
2016-09-01T06:35:59.998Z,89.72
2016-09-01T06:36:59.991Z,89.39
2016-09-01T06:37:59.260Z,89.48
2016-09-01T06:38:59.954Z,89
2016-09-01T06:39:59.950Z,88.51
2016-09-01T06:40:59.938Z,88.9
2016-09-01T06:41:59.926Z,88.9
2016-09-01T06:42:59.919Z,89.09
2016-09-01T06:43:59.911Z,88.81
2016-09-01T06:44:59.886Z,89.19
2016-09-01T06:45:59.156Z,89
2016-09-01T06:46:59.863Z,89.29
2016-09-01T06:47:59.139Z,89
2016-09-01T06:48:59.845Z,88.13
2016-09-01T06:49:59.127Z,88.61
2016-09-01T06:50:59.816Z,88.17
2016-09-01T06:51:59.805Z,88.08
2016-09-01T06:52:59.078Z,87.98
2016-09-01T06:53:59.782Z,89.14
2016-09-01T06:54:59.857Z,88.61
2016-09-01T06:55:59.770Z,87.88
2016-09-01T06:56:59.087Z,88.08
2016-09-01T06:57:59.737Z,86.44
2016-09-01T06:58:59.091Z,82.71
2016-09-01T06:59:59.713Z,81.77
2016-09-01T07:00:59.710Z,79.5
2016-09-01T07:01:59.718Z,75.85
2016-09-01T07:02:58.980Z,73.64
2016-09-01T07:03:59.695Z,73.52
2016-09-01T07:04:58.971Z,71.93
2016-09-01T07:05:59.669Z,68.73
2016-09-01T07:06:59.670Z,65.63
2016-09-01T07:07:58.941Z,63.78
2016-09-01T07:08:58.978Z,63.78
2016-09-01T07:09:59.624Z,63.22
2016-09-01T07:10:59.626Z,67.12
2016-09-01T07:11:58.900Z,66.76
2016-09-01T07:12:59.608Z,65.46
2016-09-01T07:13:58.888Z,67.28
2016-09-01T07:14:59.596Z,70.16
2016-09-01T07:15:59.586Z,70.25
2016-09-01T07:16:58.865Z,69.74
2016-09-01T07:17:59.561Z,68.87
2016-09-01T07:18:59.563Z,69.64
2016-09-01T07:19:59.556Z,70.19
2016-09-01T07:20:59.547Z,70.77
2016-09-01T07:21:59.549Z,70.29
2016-09-01T07:22:59.536Z,71.06
2016-09-01T07:23:59.719Z,72.09
2016-09-01T07:24:59.534Z,72.67
2016-09-01T07:25:58.787Z,72.58
2016-09-01T07:26:59.507Z,73.07
2016-09-01T07:27:59.498Z,74.35
2016-09-01T07:28:59.488Z,75.19
2016-09-01T07:29:59.479Z,76.45
2016-09-01T07:30:58.756Z,77.98
2016-09-01T07:31:59.461Z,78.46
2016-09-01T07:32:59.456Z,78.36
2016-09-01T07:33:59.449Z,80.4
2016-09-01T07:34:59.448Z,81.04
2016-09-01T07:35:59.430Z,81.96
2016-09-01T07:36:59.420Z,81.57
2016-09-01T07:37:58.710Z,81.77
2016-09-01T07:38:59.404Z,83.41
2016-09-01T07:39:59.461Z,82.79
2016-09-01T07:40:59.398Z,82.31
2016-09-01T07:41:59.404Z,83.03
2016-09-01T07:42:59.390Z,82.54
2016-09-01T07:43:59.373Z,82.2
2016-09-01T07:44:59.366Z,81.77
2016-09-01T07:45:58.654Z,79.97
2016-09-01T07:46:58.633Z,78.75
2016-09-01T07:47:59.359Z,77.82
2016-09-01T07:48:59.358Z,76.25
2016-09-01T07:49:58.632Z,75.57
2016-09-01T07:50:59.332Z,74.74
2016-09-01T07:51:58.689Z,74.16
2016-09-01T07:52:58.621Z,73.86
2016-09-01T07:53:59.329Z,74.19
2016-09-01T07:54:58.606Z,74.13
2016-09-01T07:55:59.335Z,72.81
2016-09-01T07:56:58.594Z,74.37
2016-09-01T07:57:59.310Z,73.71
2016-09-01T07:58:58.585Z,72.67
2016-09-01T07:59:58.586Z,72.13
2016-09-01T08:00:59.300Z,70.26
2016-09-01T08:01:59.295Z,69.22
2016-09-01T08:02:59.310Z,69.61
2016-09-01T08:03:58.567Z,68.51
2016-09-01T08:04:58.613Z,66.83
2016-09-01T08:05:58.570Z,64.97
2016-09-01T08:06:59.285Z,63.77
2016-09-01T08:07:59.275Z,63.05
2016-09-01T08:08:59.270Z,64.19
2016-09-01T08:09:59.285Z,64.62
2016-09-01T08:10:58.629Z,66.86
2016-09-01T08:11:59.277Z,68.61
2016-09-01T08:12:59.274Z,69.67
2016-09-01T08:13:59.266Z,67.96
2016-09-01T08:14:59.275Z,66.37
2016-09-01T08:15:59.271Z,64.55
2016-09-01T08:16:59.266Z,63.74
2016-09-01T08:17:58.557Z,61.98
2016-09-01T08:18:59.271Z,61.23
2016-09-01T08:19:59.266Z,60.38
2016-09-01T08:20:59.269Z,60.28
2016-09-01T08:21:58.551Z,59.82
2016-09-01T08:22:59.288Z,59.69
2016-09-01T08:23:59.249Z,58.87
2016-09-01T08:24:58.550Z,58.41
2016-09-01T08:25:58.554Z,58.9
2016-09-01T08:26:59.252Z,59.42
2016-09-01T08:27:59.252Z,60.5
2016-09-01T08:28:58.537Z,60.74
2016-09-01T08:29:59.263Z,61.84
2016-09-01T08:30:59.267Z,61.59
2016-09-01T08:31:59.265Z,61.23
2016-09-01T08:32:59.277Z,60.84
2016-09-01T08:33:58.550Z,60.35
2016-09-01T08:34:59.260Z,60.67
2016-09-01T08:35:58.545Z,60.35
2016-09-01T08:36:58.546Z,61.06
2016-09-01T08:37:59.300Z,62.05
2016-09-01T08:38:59.264Z,64.75
2016-09-01T08:39:59.329Z,64.87
2016-09-01T08:40:59.264Z,64.78
2016-09-01T08:41:59.273Z,64.72
2016-09-01T08:42:59.267Z,63.48
2016-09-01T08:43:59.319Z,62.63
2016-09-01T08:44:59.279Z,62.73
2016-09-01T08:45:59.261Z,62.89
2016-09-01T08:46:58.559Z,62.44
2016-09-01T08:47:59.274Z,63.67
2016-09-01T08:48:58.544Z,64.16
2016-09-01T08:49:59.279Z,63.35
2016-09-01T08:50:58.546Z,62.66
2016-09-01T08:51:59.290Z,62.79
2016-09-01T08:52:59.260Z,61.85
2016-09-01T08:53:59.275Z,61.04
2016-09-01T08:54:58.571Z,61.04
2016-09-01T08:55:58.551Z,61.85
2016-09-01T08:56:59.258Z,62.27
2016-09-01T08:57:58.539Z,62.73
2016-09-01T08:58:59.274Z,63.87
2016-09-01T08:59:58.547Z,65.2
2016-09-01T09:00:59.258Z,64.59
2016-09-01T09:01:59.256Z,63.81
2016-09-01T09:02:59.322Z,62.99
2016-09-01T09:03:58.548Z,63.6
2016-09-01T09:04:59.309Z,63.67
2016-09-01T09:05:59.277Z,65.53
2016-09-01T09:06:59.290Z,66.02
2016-09-01T09:07:59.263Z,64.69
2016-09-01T09:08:58.658Z,64.06
2016-09-01T09:09:58.562Z,63.15
2016-09-01T09:10:59.279Z,62.44
2016-09-01T09:11:59.273Z,61.3
2016-09-01T09:12:58.548Z,60.84
2016-09-01T09:13:59.277Z,61.06
2016-09-01T09:14:58.629Z,60.31
2016-09-01T09:15:58.557Z,59.27
2016-09-01T09:16:59.303Z,59.56
2016-09-01T09:17:59.716Z,60.21
2016-09-01T09:18:58.564Z,60.11
2016-09-01T09:19:59.270Z,60.11
2016-09-01T09:20:59.299Z,60.41
2016-09-01T09:21:59.273Z,60.74
2016-09-01T09:22:59.272Z,59.53
2016-09-01T09:23:58.619Z,59.14
2016-09-01T09:24:59.284Z,61.16
2016-09-01T09:25:59.285Z,62.53
2016-09-01T09:26:59.285Z,64.42
2016-09-01T09:27:59.285Z,63.42
2016-09-01T09:28:58.578Z,63.06
2016-09-01T09:29:59.298Z,62.82
2016-09-01T09:30:59.297Z,62.6
2016-09-01T09:31:59.294Z,61.3
2016-09-01T09:32:59.295Z,61.69
2016-09-01T09:33:58.808Z,61.25
2016-09-01T09:34:59.298Z,60.86
2016-09-01T09:35:59.294Z,60.86
2016-09-01T09:36:59.300Z,61.91
2016-09-01T09:37:58.588Z,62.63
2016-09-01T09:38:59.297Z,61.85
2016-09-01T09:39:58.589Z,61.49
2016-09-01T09:40:59.297Z,61.84
2016-09-01T09:41:58.586Z,60.57
2016-09-01T09:42:59.321Z,59.46
2016-09-01T09:43:59.302Z,61.19
2016-09-01T09:44:59.311Z,61.06
2016-09-01T09:45:59.297Z,60.21
2016-09-01T09:46:58.599Z,59.09
2016-09-01T09:47:59.308Z,58.51
2016-09-01T09:48:59.309Z,58.05
2016-09-01T09:49:59.306Z,59.42
2016-09-01T09:50:59.305Z,59.4
2016-09-01T09:51:59.310Z,57.97
2016-09-01T09:52:59.356Z,57.34
2016-09-01T09:53:59.306Z,60.41
2016-09-01T09:54:59.311Z,60.25
2016-09-01T09:55:58.599Z,59.92
2016-09-01T09:56:59.306Z,59.46
2016-09-01T09:57:59.306Z,59.43
2016-09-01T09:58:59.310Z,58.02
2016-09-01T09:59:58.600Z,57.82
2016-09-01T10:00:59.304Z,57.2
2016-09-01T10:01:59.299Z,57.56
2016-09-01T10:02:59.311Z,57.24
2016-09-01T10:03:59.296Z,57.53
2016-09-01T10:04:59.309Z,58.48
2016-09-01T10:05:59.310Z,59.69
2016-09-01T10:06:58.593Z,59.01
2016-09-01T10:07:59.305Z,58.02
2016-09-01T10:08:59.307Z,56.77
2016-09-01T10:09:59.303Z,56.61
2016-09-01T10:10:59.299Z,56.09
2016-09-01T10:11:59.308Z,56.41
2016-09-01T10:12:58.763Z,56.95
2016-09-01T10:13:59.298Z,56.95
2016-09-01T10:14:58.585Z,56.87
2016-09-01T10:15:59.333Z,59.77
2016-09-01T10:16:58.578Z,58.62
2016-09-01T10:17:58.616Z,58.55
2016-09-01T10:18:59.284Z,59.07
2016-09-01T10:19:59.285Z,60.84
2016-09-01T10:20:59.290Z,60.42
2016-09-01T10:21:58.581Z,59.3
2016-09-01T10:22:59.278Z,57.87
2016-09-01T10:23:59.275Z,56.65
2016-09-01T10:24:59.284Z,56.46
2016-09-01T10:25:59.265Z,56.48
2016-09-01T10:26:58.550Z,56.31
2016-09-01T10:27:59.254Z,55.66
2016-09-01T10:28:59.270Z,54.48
2016-09-01T10:29:58.536Z,54.6
2016-09-01T10:30:59.246Z,55.58
2016-09-01T10:31:58.526Z,56.34
2016-09-01T10:32:58.550Z,57.59
2016-09-01T10:33:59.250Z,57.87
2016-09-01T10:34:59.258Z,58.84
2016-09-01T10:35:59.276Z,58.03
2016-09-01T10:36:59.240Z,56.79
2016-09-01T10:37:59.221Z,56.46
2016-09-01T10:38:59.234Z,55.21
2016-09-01T10:39:59.218Z,55.43
2016-09-01T10:40:59.217Z,54.58
2016-09-01T10:41:59.223Z,54.5
2016-09-01T10:42:59.220Z,54.04
2016-09-01T10:43:58.496Z,54.66
2016-09-01T10:44:59.207Z,52.11
2016-09-01T10:45:59.203Z,52.03
2016-09-01T10:46:59.206Z,52.76
2016-09-01T10:47:58.489Z,53.55
2016-09-01T10:48:59.254Z,55.16
2016-09-01T10:49:59.210Z,55.9
2016-09-01T10:50:59.188Z,56.06
2016-09-01T10:51:59.190Z,54.91
2016-09-01T10:52:59.185Z,54.43
2016-09-01T10:53:59.173Z,53.96
2016-09-01T10:54:58.466Z,52.89
2016-09-01T10:55:58.447Z,53.01
2016-09-01T10:56:59.164Z,52.89
2016-09-01T10:57:59.178Z,55.6
2016-09-01T10:58:59.156Z,56.6
2016-09-01T10:59:58.428Z,56.99
2016-09-01T11:00:58.426Z,57.67
2016-09-01T11:01:59.164Z,56.62
2016-09-01T11:02:58.429Z,56.33
2016-09-01T11:03:59.139Z,56.62
2016-09-01T11:04:58.419Z,56.46
2016-09-01T11:05:59.121Z,54.91
2016-09-01T11:06:59.125Z,56.52
2016-09-01T11:07:59.122Z,56.57
2016-09-01T11:08:58.401Z,56.62
2016-09-01T11:09:59.104Z,58.98
2016-09-01T11:10:59.106Z,57.81
2016-09-01T11:11:59.103Z,57.74
2016-09-01T11:12:59.122Z,56.6
2016-09-01T11:13:59.096Z,55.87
2016-09-01T11:14:58.369Z,56.26
2016-09-01T11:15:58.367Z,55.38
2016-09-01T11:16:58.368Z,56.58
2016-09-01T11:17:59.071Z,57.28
2016-09-01T11:18:59.067Z,56.86
2016-09-01T11:19:59.087Z,56.5
2016-09-01T11:20:58.346Z,55.77
2016-09-01T11:21:59.076Z,55.55
2016-09-01T11:22:58.356Z,54.03
2016-09-01T11:23:59.100Z,55.01
2016-09-01T11:24:58.337Z,55.42
2016-09-01T11:25:59.037Z,56.01
2016-09-01T11:26:59.035Z,56.4
2016-09-01T11:27:59.024Z,56.6
2016-09-01T11:28:58.310Z,56.67
2016-09-01T11:29:58.305Z,57.81
2016-09-01T11:30:58.300Z,58.73
2016-09-01T11:31:59.068Z,57.81
2016-09-01T11:32:59.014Z,57.06
2016-09-01T11:33:58.291Z,56.74
2016-09-01T11:34:58.287Z,55.74
2016-09-01T11:35:58.999Z,55.52
2016-09-01T11:36:58.278Z,56.96
2016-09-01T11:37:58.278Z,56.54
2016-09-01T11:38:58.986Z,56.2
2016-09-01T11:39:58.260Z,56.46
2016-09-01T11:40:58.975Z,54.06
2016-09-01T11:41:58.249Z,54.77
2016-09-01T11:42:58.976Z,55.32
2016-09-01T11:43:58.956Z,55.18
2016-09-01T11:44:58.952Z,55.84
2016-09-01T11:45:58.955Z,55.81
2016-09-01T11:46:58.300Z,55.45
2016-09-01T11:47:58.941Z,56.43
2016-09-01T11:48:58.225Z,57.09
2016-09-01T11:49:58.930Z,56.3
2016-09-01T11:50:58.217Z,55.08
2016-09-01T11:51:58.923Z,54.46
2016-09-01T11:52:58.919Z,54.52
2016-09-01T11:53:58.914Z,55.21
2016-09-01T11:54:58.197Z,55.08
2016-09-01T11:55:58.909Z,56.43
2016-09-01T11:56:58.901Z,56.57
2016-09-01T11:57:58.896Z,57.54
2016-09-01T11:58:58.897Z,58.13
2016-09-01T11:59:58.332Z,58.52
2016-09-01T12:00:58.935Z,58.5
2016-09-01T12:01:58.153Z,58.95
2016-09-01T12:02:59.016Z,59.34
2016-09-01T12:03:58.150Z,59.44
2016-09-01T12:04:58.866Z,59.34
2016-09-01T12:05:58.149Z,59.64
2016-09-01T12:06:58.856Z,59.77
2016-09-01T12:07:59.021Z,58.89
2016-09-01T12:08:58.845Z,57.93
2016-09-01T12:09:58.124Z,58.5
2016-09-01T12:10:58.120Z,59.38
2016-09-01T12:11:58.822Z,59.38
2016-09-01T12:12:58.107Z,59.34
2016-09-01T12:13:58.831Z,60.52
2016-09-01T12:14:58.815Z,61.17
2016-09-01T12:15:58.102Z,61.76
2016-09-01T12:16:58.086Z,61.63
2016-09-01T12:17:58.793Z,62.47
2016-09-01T12:18:58.796Z,62.96
2016-09-01T12:19:58.068Z,63.87
2016-09-01T12:20:58.779Z,63.58
2016-09-01T12:21:58.069Z,63.97
2016-09-01T12:22:58.776Z,63.48
2016-09-01T12:23:58.300Z,62.99
2016-09-01T12:24:58.038Z,63.68
2016-09-01T12:25:58.752Z,63.78
2016-09-01T12:26:58.024Z,63.78
2016-09-01T12:27:58.033Z,63.78
2016-09-01T12:28:58.738Z,63.51
2016-09-01T12:29:58.749Z,62.93
2016-09-01T12:30:58.006Z,61.4
2016-09-01T12:31:58.714Z,60.82
2016-09-01T12:32:58.706Z,60.16
2016-09-01T12:33:58.708Z,59.44
2016-09-01T12:34:58.695Z,59.08
2016-09-01T12:35:57.980Z,58.98
2016-09-01T12:36:58.687Z,58.42
2016-09-01T12:37:58.690Z,59.59
2016-09-01T12:38:58.680Z,60.42
2016-09-01T12:39:58.665Z,60.94
2016-09-01T12:40:58.653Z,61.17
2016-09-01T12:41:58.711Z,61.17
2016-09-01T12:42:58.650Z,60.03
2016-09-01T12:43:58.642Z,59.67
2016-09-01T12:44:58.648Z,61.1
2016-09-01T12:45:58.698Z,60.68
2016-09-01T12:46:57.921Z,59.96
2016-09-01T12:47:57.917Z,59.77
2016-09-01T12:48:58.616Z,60.25
2016-09-01T12:49:58.622Z,61.04
2016-09-01T12:50:58.602Z,61.85
2016-09-01T12:51:58.628Z,63.06
2016-09-01T12:52:58.594Z,63.25
2016-09-01T12:53:58.591Z,63.35